Time;durP1;ratioP1;P1;durP2;ratioP2;P2;SDS_P1;SDS_P2;PMS_P1;PMS_P2;Temp;Humidity;BMP_temperature;BMP_pressure;BME280_temperature;BME280_humidity;BME280_pressure;Samples;Min_cycle;Max_cycle;Signal;HPM_P1;HPM_P2
2022/09/16 00:00:30;;;;;;;7.22;3.88;;;;;;;23.23;53.72;98652.91;5033879;28;20439;-72
2022/09/16 00:02:57;;;;;;;7.85;3.42;;;;;;;23.33;53.51;98657.59;5033132;28;20036;-72
2022/09/16 00:05:23;;;;;;;22.40;4.45;;;;;;;23.34;53.53;98659.19;5033325;28;20087;-73
2022/09/16 00:07:48;;;;;;;12.45;5.80;;;;;;;23.38;53.09;98664.84;5033316;28;20033;-73
2022/09/16 00:10:14;;;;;;;14.77;3.88;;;;;;;22.55;55.43;98656.72;5032485;28;20040;-73
2022/09/16 00:12:40;;;;;;;13.82;4.10;;;;;;;22.99;54.33;98656.69;5033719;28;20443;-72
2022/09/16 00:15:07;;;;;;;11.38;4.82;;;;;;;23.07;54.18;98648.78;5033630;28;20060;-73
2022/09/16 00:17:33;;;;;;;17.88;4.53;;;;;;;23.07;54.06;98645.09;5033698;28;20021;-73
2022/09/16 00:19:59;;;;;;;21.30;4.78;;;;;;;22.75;54.91;98646.63;5031982;28;20026;-72
2022/09/16 00:22:26;;;;;;;26.60;5.07;;;;;;;22.90;54.37;98652.78;5031555;28;20064;-72
2022/09/16 00:24:52;;;;;;;16.50;5.18;;;;;;;22.76;55.37;98648.22;5033647;28;20113;-72
2022/09/16 00:27:17;;;;;;;19.00;5.43;;;;;;;22.91;54.75;98638.13;5033274;28;20468;-73
2022/09/16 00:29:43;;;;;;;15.68;4.25;;;;;;;22.93;54.19;98635.63;5032950;28;20034;-72
2022/09/16 00:32:08;;;;;;;12.90;4.10;;;;;;;22.98;54.59;98652.19;5033300;28;20506;-73
2022/09/16 00:34:34;;;;;;;28.60;4.97;;;;;;;22.99;54.58;98650.16;5032742;28;20534;-73
2022/09/16 00:37:02;;;;;;;19.30;4.82;;;;;;;22.97;54.45;98661.22;5031907;28;20404;-73
2022/09/16 00:39:27;;;;;;;18.25;4.32;;;;;;;23.08;54.36;98658.13;5031870;28;20030;-73
2022/09/16 00:41:53;;;;;;;12.07;5.10;;;;;;;23.07;54.73;98650.81;5032559;28;20030;-73
2022/09/16 00:44:54;;;;;;;14.00;5.63;;;;;;;23.19;53.77;98646.50;5032922;28;20062;-74
2022/09/16 00:47:42;;;;;;;13.75;4.57;;;;;;;23.22;53.76;98649.25;5032964;28;20048;-73
2022/09/16 00:50:12;;;;;;;17.13;5.00;;;;;;;23.01;54.44;98659.06;5033013;28;20056;-73
2022/09/16 00:52:40;;;;;;;27.40;5.40;;;;;;;21.78;58.03;98656.47;5032496;28;20108;-73
2022/09/16 00:55:08;;;;;;;18.13;4.60;;;;;;;21.60;58.53;98657.50;5032965;28;20059;-73
2022/09/16 00:57:35;;;;;;;14.48;5.05;;;;;;;21.62;58.70;98664.81;5032671;28;20034;-73
2022/09/16 01:00:03;;;;;;;11.45;4.07;;;;;;;21.71;58.36;98665.91;5032768;28;20033;-73
2022/09/16 01:02:29;;;;;;;22.40;5.63;;;;;;;21.96;57.51;98669.59;5032496;28;20407;-73
2022/09/16 01:05:14;;;;;;;18.58;5.25;;;;;;;21.99;57.05;98677.25;5032735;28;20029;-73
2022/09/16 01:07:46;;;;;;;13.20;4.32;;;;;;;22.08;56.59;98668.16;5032407;28;20037;-73
2022/09/16 01:10:15;;;;;;;14.93;4.20;;;;;;;22.21;55.99;98677.69;5032606;28;20028;-73
2022/09/16 01:12:44;;;;;;;11.43;5.15;;;;;;;22.24;56.07;98682.53;5031700;28;20037;-73
2022/09/16 01:15:10;;;;;;;18.35;4.30;;;;;;;22.19;55.86;98694.41;5031848;28;20538;-73
2022/09/16 01:17:41;;;;;;;7.68;4.47;;;;;;;22.25;55.78;98686.97;5032071;28;20056;-73
2022/09/16 01:20:09;;;;;;;12.02;4.30;;;;;;;22.37;55.37;98684.75;5032341;28;20411;-73
2022/09/16 01:22:43;;;;;;;10.48;4.03;;;;;;;22.27;55.46;98693.03;5032299;28;20029;-73
2022/09/16 01:25:40;;;;;;;15.30;4.72;;;;;;;22.25;55.54;98689.81;5032327;28;20029;-73
2022/09/16 01:28:40;;;;;;;20.27;3.83;;;;;;;21.98;56.07;98685.00;5031901;28;20526;-73
2022/09/16 01:31:21;;;;;;;20.40;4.50;;;;;;;21.10;58.23;98684.63;5032389;28;20179;-73
2022/09/16 01:34:14;;;;;;;12.38;3.97;;;;;;;20.68;59.73;98683.91;5032553;28;20116;-73
2022/09/16 01:37:07;;;;;;;22.92;4.13;;;;;;;20.61;59.70;98685.59;5030750;28;20029;-73
2022/09/16 01:39:44;;;;;;;15.57;4.38;;;;;;;20.81;59.10;98681.31;5031550;28;20048;-73
2022/09/16 01:42:31;;;;;;;11.95;4.15;;;;;;;21.03;58.08;98676.22;5031898;28;20496;-73
2022/09/16 01:45:07;;;;;;;7.63;3.92;;;;;;;21.21;57.80;98684.50;5031811;28;20073;-73
2022/09/16 01:47:36;;;;;;;20.80;4.55;;;;;;;21.23;57.93;98669.84;5031773;28;20415;-73
2022/09/16 01:50:24;;;;;;;8.38;3.95;;;;;;;21.26;57.69;98674.69;5031903;28;20045;-73
2022/09/16 01:52:56;;;;;;;14.30;5.22;;;;;;;21.43;57.12;98681.38;5044719;28;20555;-73
2022/09/16 01:55:48;;;;;;;10.20;3.92;;;;;;;21.67;56.38;98678.59;5031808;28;20104;-73
2022/09/16 01:58:25;;;;;;;13.88;3.65;;;;;;;21.62;56.59;98677.00;5031729;28;20144;-73
2022/09/16 02:00:55;;;;;;;28.33;4.68;;;;;;;21.35;57.57;98677.78;5031719;28;20112;-73
2022/09/16 02:03:31;;;;;;;7.65;4.40;;;;;;;21.37;57.46;98683.06;5030486;28;20476;-73
2022/09/16 02:06:05;;;;;;;7.90;3.78;;;;;;;21.34;57.56;98695.31;5038244;28;20112;-73
2022/09/16 02:08:39;;;;;;;13.90;4.38;;;;;;;21.46;56.87;98689.81;5051411;28;20021;-73
2022/09/16 02:11:09;;;;;;;12.90;4.18;;;;;;;21.22;57.19;98693.81;5051465;28;20515;-73
2022/09/16 02:14:03;;;;;;;23.63;4.43;;;;;;;21.40;56.66;98694.41;5051484;28;20388;-73
2022/09/16 02:16:45;;;;;;;15.25;4.65;;;;;;;20.33;59.25;98689.53;5033560;28;20094;-73
2022/09/16 02:19:18;;;;;;;17.70;4.53;;;;;;;20.45;59.61;98693.88;5030855;28;20025;-73
2022/09/16 02:21:45;;;;;;;16.83;4.38;;;;;;;20.39;59.74;98695.56;5032584;28;20052;-73
2022/09/16 02:24:16;;;;;;;20.98;5.20;;;;;;;19.85;61.12;98699.66;5031441;28;20022;-73
2022/09/16 02:26:47;;;;;;;12.20;4.93;;;;;;;19.68;61.85;98704.25;5031360;28;20025;-73
2022/09/16 02:29:20;;;;;;;20.35;5.55;;;;;;;19.48;62.28;98697.09;5029535;28;20104;-73
2022/09/16 02:31:47;;;;;;;11.73;4.20;;;;;;;19.58;62.10;98712.41;5030829;28;20025;-73
2022/09/16 02:34:21;;;;;;;11.05;4.25;;;;;;;19.83;60.94;98702.13;5031238;28;20080;-73
2022/09/16 02:36:55;;;;;;;14.18;4.43;;;;;;;19.59;61.16;98704.72;5031196;28;20102;-73
2022/09/16 02:39:28;;;;;;;15.85;4.72;;;;;;;19.86;60.69;98710.59;5030849;28;20558;-73
2022/09/16 02:41:55;;;;;;;14.45;4.78;;;;;;;19.83;60.86;98710.63;5030594;28;20146;-72
2022/09/16 02:44:23;;;;;;;16.20;5.13;;;;;;;19.80;60.85;98714.31;5031203;28;20061;-73
2022/09/16 02:47:25;;;;;;;18.33;5.85;;;;;;;19.47;61.58;98715.31;5042072;28;20021;-73
2022/09/16 02:50:17;;;;;;;14.48;4.47;;;;;;;19.44;62.10;98713.31;5029868;28;20408;-73
2022/09/16 02:52:56;;;;;;;21.38;4.55;;;;;;;19.33;62.87;98718.25;5030640;28;20100;-73
2022/09/16 02:55:50;;;;;;;9.35;5.30;;;;;;;19.44;62.87;98706.84;5031040;28;20021;-73
2022/09/16 02:58:16;;;;;;;14.57;5.60;;;;;;;19.59;62.29;98701.88;5032810;28;20041;-73
2022/09/16 03:00:46;;;;;;;15.13;4.97;;;;;;;19.86;61.17;98692.75;5033890;28;20036;-73
2022/09/16 03:03:12;;;;;;;14.57;5.63;;;;;;;19.84;61.14;98700.91;5035188;28;20565;-73
2022/09/16 03:06:17;;;;;;;11.65;5.15;;;;;;;19.38;62.43;98700.78;5035539;28;20029;-73
2022/09/16 03:08:45;;;;;;;12.82;5.00;;;;;;;19.56;61.63;98685.72;5035469;28;20025;-73
2022/09/16 03:11:21;;;;;;;15.52;5.57;;;;;;;19.52;61.92;98697.06;5035271;28;20097;-73
2022/09/16 03:14:01;;;;;;;17.70;5.45;;;;;;;19.92;60.66;98696.78;5035482;28;20028;-73
2022/09/16 03:16:39;;;;;;;9.98;4.53;;;;;;;20.25;59.81;98702.19;5045081;28;20025;-73
2022/09/16 03:19:25;;;;;;;13.70;4.88;;;;;;;20.45;59.25;98705.25;5055201;28;20099;-73
2022/09/16 03:22:05;;;;;;;16.45;4.55;;;;;;;20.55;58.81;98686.47;5055091;28;20013;-73
2022/09/16 03:24:54;;;;;;;;;;;;;;;20.47;58.90;98703.59;5054223;28;20029;-73
2022/09/16 03:27:30;;;;;;;15.07;4.60;;;;;;;20.49;59.12;98708.84;5051407;28;19984;-73
2022/09/16 03:30:03;;;;;;;17.75;4.30;;;;;;;20.70;58.05;98704.19;5034951;28;20116;-72
2022/09/16 03:32:51;;;;;;;16.92;4.00;;;;;;;20.83;58.04;98710.94;5048804;28;20115;-73
2022/09/16 03:35:28;;;;;;;12.95;5.30;;;;;;;20.71;58.19;98700.09;5053630;28;20028;-73
2022/09/16 03:37:56;;;;;;;11.18;4.55;;;;;;;20.82;58.29;98700.81;5054911;28;20021;-73
2022/09/16 03:40:22;;;;;;;22.98;4.72;;;;;;;20.82;58.00;98697.97;5053719;28;20067;-73
2022/09/16 03:42:47;;;;;;;18.75;4.28;;;;;;;20.87;57.80;98688.19;5050733;28;20035;-73
2022/09/16 03:45:19;;;;;;;11.18;5.22;;;;;;;20.86;57.67;98695.88;5043010;28;20045;-73
2022/09/16 03:47:48;;;;;;;17.35;5.13;;;;;;;20.98;57.49;98691.69;5033579;28;20039;-73
2022/09/16 03:50:14;;;;;;;15.13;4.43;;;;;;;20.92;57.80;98689.75;5034661;28;20053;-73
2022/09/16 03:52:39;;;;;;;17.13;5.32;;;;;;;20.63;58.37;98682.34;5034177;28;20504;-73
2022/09/16 03:55:06;;;;;;;21.17;6.00;;;;;;;20.57;58.36;98675.50;5040396;28;20715;-77
2022/09/16 03:57:35;;;;;;;17.95;5.32;;;;;;;20.57;58.32;98678.34;5054341;28;20060;-77
2022/09/16 04:00:00;;;;;;;20.67;5.65;;;;;;;20.43;59.14;98688.63;5051893;28;20484;-78
2022/09/16 04:02:26;;;;;;;22.80;4.88;;;;;;;20.19;60.08;98687.66;5045451;28;20092;-77
2022/09/16 04:04:52;;;;;;;15.20;5.53;;;;;;;20.44;59.30;98686.59;5034499;28;20057;-79
2022/09/16 04:07:17;;;;;;;34.40;6.63;;;;;;;20.48;59.35;98693.03;5034353;28;20045;-75
2022/09/16 04:09:42;;;;;;;37.78;6.70;;;;;;;20.59;58.87;98688.06;5049659;28;20030;-74
2022/09/16 04:12:08;;;;;;;70.72;9.52;;;;;;;20.71;58.65;98698.09;5041297;28;20025;-73
2022/09/16 04:14:34;;;;;;;43.22;6.68;;;;;;;20.67;58.81;98687.97;5049054;28;20032;-72
2022/09/16 04:17:00;;;;;;;33.95;6.95;;;;;;;20.74;58.55;98676.53;5042866;28;20428;-72
2022/09/16 04:19:26;;;;;;;49.38;7.00;;;;;;;20.82;58.28;98685.81;5032937;28;20030;-72
2022/09/16 04:21:51;;;;;;;28.30;7.55;;;;;;;20.58;58.20;98680.75;5033192;28;20025;-72
2022/09/16 04:24:17;;;;;;;41.20;7.63;;;;;;;20.83;58.01;98693.91;5033413;28;20455;-72
2022/09/16 04:26:43;;;;;;;37.55;8.27;;;;;;;20.34;59.26;98708.22;5032428;28;20057;-72
2022/09/16 04:29:09;;;;;;;28.08;6.30;;;;;;;20.57;57.69;98712.41;5045384;28;20025;-72
2022/09/16 04:31:35;;;;;;;18.40;6.97;;;;;;;20.28;57.24;98705.03;5044207;28;20087;-72
2022/09/16 04:34:03;;;;;;;21.13;5.10;;;;;;;19.86;57.92;98704.13;5031966;28;20035;-72
2022/09/16 04:36:29;;;;;;;14.32;4.35;;;;;;;19.62;58.84;98706.72;5032818;28;20416;-72
2022/09/16 04:38:54;;;;;;;16.67;4.25;;;;;;;19.50;59.01;98716.53;5036574;28;20036;-72
2022/09/16 04:41:22;;;;;;;11.65;4.28;;;;;;;19.25;60.22;98728.00;5034076;28;20064;-72
2022/09/16 04:43:54;;;;;;;15.95;4.45;;;;;;;19.18;60.62;98715.47;5033934;28;20416;-72
2022/09/16 04:46:21;;;;;;;13.80;3.80;;;;;;;19.22;61.16;98712.63;5046046;28;20037;-72
2022/09/16 04:48:51;;;;;;;9.90;3.53;;;;;;;19.31;60.85;98717.84;5043637;28;20032;-72
2022/09/16 04:51:16;;;;;;;;;;;;;;;19.34;60.96;98720.66;5033443;28;20052;-72
2022/09/16 04:53:43;;;;;;;24.08;5.70;;;;;;;19.52;60.76;98724.59;5046547;28;19913;-72
2022/09/16 04:56:14;;;;;;;19.85;5.32;;;;;;;19.49;60.73;98720.59;5031801;28;20034;-72
2022/09/16 04:58:45;;;;;;;20.70;3.72;;;;;;;19.62;60.95;98732.25;5036456;28;20574;-72
2022/09/16 05:01:16;;;;;;;15.82;4.22;;;;;;;19.82;60.45;98720.38;5038469;28;20086;-71
2022/09/16 05:03:44;;;;;;;19.70;4.53;;;;;;;19.84;60.68;98717.91;5034522;28;20053;-72
2022/09/16 05:06:15;;;;;;;22.42;4.95;;;;;;;19.80;60.55;98717.16;5050424;28;20025;-72
2022/09/16 05:08:41;;;;;;;33.20;5.38;;;;;;;19.91;59.98;98729.22;5038753;28;20021;-72
2022/09/16 05:11:15;;;;;;;21.95;5.45;;;;;;;19.96;59.86;98725.97;5036913;28;20083;-72
2022/09/16 05:13:41;;;;;;;29.77;4.50;;;;;;;20.10;59.54;98722.22;5037636;28;20082;-72
2022/09/16 05:16:11;;;;;;;24.00;5.63;;;;;;;20.32;59.12;98714.28;5034456;28;20037;-72
2022/09/16 05:18:38;;;;;;;22.70;4.22;;;;;;;20.38;58.62;98713.84;5030404;28;20510;-72
2022/09/16 05:21:11;;;;;;;17.42;4.38;;;;;;;20.33;59.01;98721.59;5035867;28;20026;-72
2022/09/16 05:23:37;;;;;;;27.02;5.32;;;;;;;20.43;59.29;98708.50;5030656;28;20036;-72
2022/09/16 05:26:04;;;;;;;14.82;5.55;;;;;;;20.48;58.55;98705.22;5031519;28;20029;-72
2022/09/16 05:28:30;;;;;;;18.27;4.32;;;;;;;20.52;58.19;98693.81;5030540;28;20123;-72
2022/09/16 05:31:22;;;;;;;29.27;5.15;;;;;;;20.59;57.75;98693.72;5031053;28;20052;-71
2022/09/16 05:33:57;;;;;;;19.73;5.03;;;;;;;20.65;57.95;98693.28;5035475;28;20504;-72
2022/09/16 05:36:24;;;;;;;24.55;4.60;;;;;;;20.87;57.98;98691.81;5033982;28;20492;-72
2022/09/16 05:38:50;;;;;;;27.25;4.35;;;;;;;21.07;56.89;98682.66;5035540;28;20079;-73
2022/09/16 05:41:15;;;;;;;34.10;7.47;;;;;;;21.15;56.52;98684.16;5032436;28;20037;-72
2022/09/16 05:43:41;;;;;;;24.40;5.38;;;;;;;21.32;56.06;98681.50;5035506;28;20038;-73
2022/09/16 05:46:06;;;;;;;21.75;4.88;;;;;;;21.59;56.09;98677.84;5031516;28;20075;-73
2022/09/16 05:48:33;;;;;;;14.23;4.00;;;;;;;21.85;55.19;98670.56;5043320;28;20033;-74
2022/09/16 05:51:02;;;;;;;11.38;4.00;;;;;;;21.87;54.01;98681.53;5050110;28;20029;-73
2022/09/16 05:53:29;;;;;;;19.98;3.70;;;;;;;22.02;53.76;98680.03;5030913;28;20411;-69
2022/09/16 05:56:01;;;;;;;17.08;3.45;;;;;;;22.21;53.47;98676.88;5037463;28;20017;-78
2022/09/16 05:58:28;;;;;;;18.52;5.07;;;;;;;22.41;53.21;98669.19;5043179;28;20440;-72
2022/09/16 06:01:17;;;;;;;27.35;4.93;;;;;;;22.62;52.68;98672.09;5030331;28;20059;-77
2022/09/16 06:03:44;;;;;;;24.13;5.63;;;;;;;22.81;52.35;98662.75;5031782;28;20157;-75
2022/09/16 06:06:33;;;;;;;25.02;6.88;;;;;;;22.99;52.12;98665.22;5043334;28;20028;-74
2022/09/16 06:09:03;;;;;;;23.65;4.40;;;;;;;23.11;51.86;98680.06;5031306;28;20526;-73
2022/09/16 06:11:28;;;;;;;31.40;4.78;;;;;;;23.26;50.83;98669.13;5040652;28;20028;-73
2022/09/16 06:14:00;;;;;;;28.45;5.20;;;;;;;23.42;49.59;98674.91;5032734;28;20441;-74
2022/09/16 06:16:27;;;;;;;13.85;4.35;;;;;;;23.57;49.08;98671.72;5037434;28;20029;-76
2022/09/16 06:18:54;;;;;;;20.23;4.38;;;;;;;23.65;48.39;98667.47;5042920;28;20512;-71
2022/09/16 06:21:20;;;;;;;14.48;3.60;;;;;;;23.73;47.66;98667.28;5046174;28;20040;-72
2022/09/16 06:23:46;;;;;;;15.02;2.88;;;;;;;23.80;47.41;98673.59;5043564;28;20108;-74
2022/09/16 06:26:14;;;;;;;28.67;5.90;;;;;;;23.95;46.90;98667.53;5031598;28;20480;-73
2022/09/16 06:28:40;;;;;;;25.23;3.63;;;;;;;23.95;46.13;98668.34;5035659;28;20036;-73
2022/09/16 06:31:12;;;;;;;21.45;4.60;;;;;;;24.06;45.70;98690.94;5032817;28;20516;-75
2022/09/16 06:33:38;;;;;;;23.55;4.85;;;;;;;24.18;45.51;98682.91;5029010;28;20028;-73
2022/09/16 06:36:16;;;;;;;23.55;3.65;;;;;;;24.35;45.07;98677.97;5039272;28;20506;-74
2022/09/16 06:38:42;;;;;;;27.00;5.57;;;;;;;24.58;43.27;98676.16;5045029;28;20025;-74
2022/09/16 06:41:10;;;;;;;29.38;5.85;;;;;;;24.66;43.82;98668.97;5035019;28;20110;-74
2022/09/16 06:43:35;;;;;;;24.40;4.63;;;;;;;24.82;43.18;98665.31;5030935;28;20053;-74
2022/09/16 06:46:12;;;;;;;32.65;5.25;;;;;;;24.96;42.06;98672.63;5039682;28;20407;-75
2022/09/16 06:48:42;;;;;;;29.55;6.03;;;;;;;25.18;43.11;98681.41;5037643;28;20028;-77
2022/09/16 06:51:13;;;;;;;16.15;3.75;;;;;;;25.32;42.93;98685.88;5035874;28;20421;-75
2022/09/16 06:53:39;;;;;;;26.17;4.40;;;;;;;25.47;42.02;98676.88;5035921;28;20056;-74
2022/09/16 06:56:09;;;;;;;24.90;4.10;;;;;;;25.60;42.06;98676.88;5034850;28;20122;-77
2022/09/16 06:58:36;;;;;;;28.00;5.60;;;;;;;25.63;43.16;98675.97;5037451;28;20527;-77
2022/09/16 07:01:10;;;;;;;24.15;4.65;;;;;;;25.73;43.42;98671.16;5033272;28;20105;-77
2022/09/16 07:03:38;;;;;;;15.57;4.72;;;;;;;25.73;43.70;98660.50;5047899;28;20041;-77
2022/09/16 07:06:03;;;;;;;17.80;4.80;;;;;;;25.82;44.25;98665.53;5051364;28;20100;-77
2022/09/16 07:08:33;;;;;;;20.67;3.97;;;;;;;26.00;43.72;98676.38;5049200;28;20108;-78
2022/09/16 07:11:16;;;;;;;12.25;3.95;;;;;;;25.95;43.24;98673.31;5043676;28;20029;-78
2022/09/16 07:13:42;;;;;;;17.58;4.18;;;;;;;25.95;42.35;98684.78;5036042;28;20388;-80
2022/09/16 07:16:13;;;;;;;11.65;3.90;;;;;;;25.96;42.55;98680.66;5042489;28;20035;-80
2022/09/16 07:18:39;;;;;;;20.52;4.40;;;;;;;26.17;43.45;98673.41;5045348;28;20101;-79
2022/09/16 07:21:06;;;;;;;34.35;7.00;;;;;;;26.20;42.29;98672.50;5050990;28;20147;-80
2022/09/16 07:23:33;;;;;;;17.50;4.13;;;;;;;26.37;42.03;98673.13;5037213;28;20120;-80
2022/09/16 07:26:17;;;;;;;17.15;3.67;;;;;;;26.51;40.69;98676.75;5037722;28;20482;-79
2022/09/16 07:28:47;;;;;;;24.95;4.35;;;;;;;26.64;40.35;98683.22;5032550;28;20021;-79
2022/09/16 07:31:24;;;;;;;20.98;4.15;;;;;;;26.83;39.67;98681.31;5030708;28;20029;-80
2022/09/16 07:33:51;;;;;;;15.95;3.70;;;;;;;26.81;40.24;98666.66;5044898;28;20032;-80
2022/09/16 07:36:19;;;;;;;23.40;4.00;;;;;;;27.04;40.17;98678.94;5030048;28;20033;-80
2022/09/16 07:38:46;;;;;;;18.73;4.20;;;;;;;27.08;39.89;98664.47;5037254;28;20021;-79
2022/09/16 07:41:20;;;;;;;21.45;4.13;;;;;;;27.34;38.86;98667.97;5051205;28;20082;-80
2022/09/16 07:43:46;;;;;;;16.48;4.53;;;;;;;27.44;38.30;98666.72;5050788;28;20047;-80
2022/09/16 07:46:15;;;;;;;14.80;4.25;;;;;;;27.57;38.68;98666.66;5039416;28;20037;-79
2022/09/16 07:48:41;;;;;;;20.30;4.47;;;;;;;27.87;37.64;98672.03;5041969;28;20526;-77
2022/09/16 07:51:12;;;;;;;12.82;3.97;;;;;;;27.90;36.39;98671.09;5052103;28;20024;-79
2022/09/16 07:53:39;;;;;;;20.15;5.25;;;;;;;28.00;36.80;98674.81;5054448;28;20037;-80
2022/09/16 07:56:07;;;;;;;19.80;5.22;;;;;;;28.03;36.89;98679.59;5054618;28;20029;-80
2022/09/16 07:58:33;;;;;;;13.88;4.53;;;;;;;28.14;36.09;98673.38;5054226;28;20097;-80
2022/09/16 08:00:59;;;;;;;20.40;5.32;;;;;;;28.30;35.55;98676.00;5054523;28;20049;-79
2022/09/16 08:03:24;;;;;;;23.83;5.07;;;;;;;28.52;35.08;98675.03;5053048;28;20025;-75
2022/09/16 08:05:50;;;;;;;36.45;5.47;;;;;;;28.61;35.40;98671.41;5054308;28;20036;-79
2022/09/16 08:08:16;;;;;;;18.60;4.38;;;;;;;28.73;33.90;98663.88;5054291;28;20040;-78
2022/09/16 08:10:42;;;;;;;20.75;4.63;;;;;;;28.83;33.95;98661.81;5054322;28;20029;-76
2022/09/16 08:13:08;;;;;;;25.85;4.47;;;;;;;28.98;34.58;98677.16;5054209;28;20059;-77
2022/09/16 08:15:34;;;;;;;29.27;3.75;;;;;;;29.15;34.08;98662.41;5053028;28;20106;-77
2022/09/16 08:18:01;;;;;;;16.02;3.42;;;;;;;29.27;32.39;98667.16;5054187;28;20480;-77
2022/09/16 08:20:27;;;;;;;17.05;3.47;;;;;;;29.37;33.31;98662.16;5052769;28;20197;-78
2022/09/16 08:22:52;;;;;;;20.70;4.85;;;;;;;29.49;32.93;98646.00;5053947;28;20021;-77
2022/09/16 08:25:18;;;;;;;18.77;4.60;;;;;;;29.49;32.55;98648.91;5054329;28;20020;-77
2022/09/16 08:27:43;;;;;;;15.88;3.15;;;;;;;29.49;31.36;98653.84;5053968;28;20036;-77
2022/09/16 08:30:09;;;;;;;26.02;4.38;;;;;;;29.61;30.34;98647.06;5053832;28;20075;-77
2022/09/16 08:32:35;;;;;;;20.75;5.30;;;;;;;29.75;30.54;98639.03;5053897;28;20075;-77
2022/09/16 08:35:01;;;;;;;35.53;13.35;;;;;;;29.82;31.00;98627.94;5052808;28;20060;-77
2022/09/16 08:37:27;;;;;;;18.50;4.28;;;;;;;29.79;30.31;98623.13;5052418;28;20021;-77
2022/09/16 08:39:52;;;;;;;23.67;3.85;;;;;;;29.87;29.51;98638.00;5053951;28;20023;-77
2022/09/16 08:42:47;;;;;;;19.02;4.18;;;;;;;29.91;30.14;98627.06;5052646;28;20028;-78
2022/09/16 08:45:25;;;;;;;24.00;5.40;;;;;;;30.05;29.52;98622.72;5047604;28;20045;-78
2022/09/16 08:48:06;;;;;;;25.90;3.85;;;;;;;30.33;29.45;98616.72;5053474;28;20547;-77
2022/09/16 08:50:44;;;;;;;27.30;6.25;;;;;;;30.55;29.40;98615.59;5053628;28;20029;-76
2022/09/16 08:53:40;;;;;;;19.77;4.45;;;;;;;30.66;29.27;98600.59;5053483;28;20024;-77
2022/09/16 08:56:12;;;;;;;16.65;4.78;;;;;;;30.95;28.88;98605.59;5053450;28;20027;-77
2022/09/16 08:58:53;;;;;;;19.27;4.18;;;;;;;31.05;28.92;98602.63;5052626;28;20021;-77
2022/09/16 09:01:35;;;;;;;16.45;4.43;;;;;;;31.21;29.00;98599.22;5053717;28;20124;-77
2022/09/16 09:04:01;;;;;;;17.52;3.75;;;;;;;31.27;27.94;98601.44;5039940;28;20503;-77
2022/09/16 09:06:45;;;;;;;28.17;3.83;;;;;;;31.27;28.04;98602.22;5033457;28;20037;-77
2022/09/16 09:09:33;;;;;;;20.52;5.25;;;;;;;31.32;27.66;98601.53;5033028;28;20463;-77
2022/09/16 09:12:07;;;;;;;20.77;4.75;;;;;;;31.27;27.50;98595.66;5032112;28;20454;-77
2022/09/16 09:15:11;;;;;;;17.85;3.78;;;;;;;31.26;27.77;98599.84;5032738;28;20029;-77
2022/09/16 09:17:45;;;;;;;36.08;4.40;;;;;;;31.30;27.76;98592.56;5032760;28;20052;-78
2022/09/16 09:20:33;;;;;;;46.22;6.97;;;;;;;31.58;28.04;98588.50;5033012;28;20025;-78
2022/09/16 09:23:26;;;;;;;25.77;4.22;;;;;;;31.65;27.76;98573.66;5032920;28;20030;-78
2022/09/16 09:26:07;;;;;;;19.63;3.88;;;;;;;31.87;26.87;98587.66;5033128;28;20025;-78
2022/09/16 09:28:52;;;;;;;30.13;4.03;;;;;;;31.96;26.96;98583.03;5035406;28;20031;-77
2022/09/16 09:31:50;;;;;;;37.00;4.93;;;;;;;32.12;28.02;98575.88;5032581;28;20032;-77
2022/09/16 09:34:48;;;;;;;23.58;5.35;;;;;;;31.85;27.13;98569.22;5030893;28;20025;-77
2022/09/16 09:37:32;;;;;;;21.33;4.60;;;;;;;32.22;27.43;98562.88;5032082;28;20032;-77
2022/09/16 09:40:08;;;;;;;20.63;4.35;;;;;;;32.14;27.08;98556.72;5030749;28;20416;-78
2022/09/16 09:42:40;;;;;;;21.02;4.07;;;;;;;32.25;27.24;98553.19;5030221;28;20104;-78
2022/09/16 09:45:25;;;;;;;18.60;3.95;;;;;;;31.90;26.47;98551.16;5031783;28;20516;-78
2022/09/16 09:48:09;;;;;;;20.27;4.28;;;;;;;31.91;27.31;98547.75;5031811;28;20036;-78
2022/09/16 09:50:44;;;;;;;28.77;4.80;;;;;;;32.24;27.18;98548.69;5031960;28;20035;-77
2022/09/16 09:53:38;;;;;;;22.70;4.03;;;;;;;32.44;27.20;98555.75;5031952;28;20108;-78
2022/09/16 09:56:32;;;;;;;28.63;5.63;;;;;;;32.60;27.39;98554.34;5031776;28;20048;-78
2022/09/16 09:59:25;;;;;;;19.58;4.07;;;;;;;32.50;27.42;98547.94;5032743;28;20424;-78
2022/09/16 10:01:55;;;;;;;22.48;3.60;;;;;;;32.55;27.48;98546.41;5030557;28;20065;-78
2022/09/16 10:04:20;;;;;;;29.35;5.25;;;;;;;32.41;27.10;98533.66;5031828;28;20100;-78
2022/09/16 10:06:48;;;;;;;27.80;4.32;;;;;;;32.39;27.54;98527.56;5031651;28;20040;-78
2022/09/16 10:09:15;;;;;;;30.63;4.25;;;;;;;32.46;27.46;98538.69;5031084;28;20026;-78
2022/09/16 10:12:00;;;;;;;28.65;5.70;;;;;;;32.66;26.48;98519.69;5031580;28;20063;-78
2022/09/16 10:14:34;;;;;;;45.10;5.90;;;;;;;32.72;27.75;98523.44;5031472;28;20132;-78
2022/09/16 10:17:02;;;;;;;15.05;3.30;;;;;;;32.31;27.10;98542.44;5031536;28;20053;-78
2022/09/16 10:19:30;;;;;;;17.80;3.88;;;;;;;32.01;28.37;98528.19;5031400;28;20030;-78
2022/09/16 10:22:34;;;;;;;11.55;3.58;;;;;;;32.37;28.31;98539.66;5030184;28;20033;-78
2022/09/16 10:25:02;;;;;;;22.90;4.63;;;;;;;32.53;27.93;98523.00;5031462;28;20091;-78
2022/09/16 10:27:34;;;;;;;25.10;3.95;;;;;;;32.66;27.99;98529.19;5031298;28;20480;-78
2022/09/16 10:30:03;;;;;;;23.48;5.47;;;;;;;32.84;27.79;98535.91;5031184;28;20030;-77
2022/09/16 10:32:29;;;;;;;18.05;3.78;;;;;;;32.93;27.52;98527.06;5031346;28;20065;-78
2022/09/16 10:34:55;;;;;;;24.00;4.88;;;;;;;32.97;26.69;98521.81;5031311;28;20025;-78
2022/09/16 10:37:22;;;;;;;28.85;5.18;;;;;;;33.07;27.50;98531.13;5031168;28;20100;-78
2022/09/16 10:39:54;;;;;;;20.15;3.70;;;;;;;33.05;26.34;98534.53;5029877;28;20025;-78
2022/09/16 10:42:27;;;;;;;22.98;4.82;;;;;;;32.88;27.04;98540.16;5029849;28;20099;-78
2022/09/16 10:45:14;;;;;;;20.48;4.43;;;;;;;33.22;26.42;98539.66;5030076;28;20059;-78
2022/09/16 10:47:40;;;;;;;11.52;3.30;;;;;;;33.14;25.89;98542.22;5031098;28;20104;-78
2022/09/16 10:50:06;;;;;;;22.92;3.85;;;;;;;32.91;26.30;98536.25;5031237;28;20488;-78
2022/09/16 10:52:44;;;;;;;19.45;3.75;;;;;;;33.02;26.07;98537.66;5031079;28;20022;-78
2022/09/16 10:55:20;;;;;;;25.13;4.05;;;;;;;33.03;26.17;98533.44;5029889;28;20053;-78
2022/09/16 10:57:46;;;;;;;14.52;4.13;;;;;;;33.18;26.56;98528.31;5030899;28;20104;-78
2022/09/16 11:00:17;;;;;;;22.13;3.35;;;;;;;32.96;25.80;98520.25;5031445;28;20029;-77
2022/09/16 11:02:48;;;;;;;18.88;4.30;;;;;;;32.97;25.97;98518.94;5031043;28;20041;-78
2022/09/16 11:05:52;;;;;;;30.92;4.85;;;;;;;33.52;26.55;98518.28;5031120;28;20029;-78
2022/09/16 11:09:08;;;;;;;28.55;4.82;;;;;;;33.86;25.54;98498.16;5031195;28;20512;-77
2022/09/16 11:12:07;;;;;;;14.70;4.63;;;;;;;34.17;25.29;98497.25;5048713;28;20075;-78
2022/09/16 11:15:00;;;;;;;19.67;4.88;;;;;;;34.33;24.83;98502.81;5048509;28;20507;-75
2022/09/16 11:18:03;;;;;;;18.33;5.30;;;;;;;34.11;25.18;98501.44;5032638;28;20112;-78
2022/09/16 11:21:10;;;;;;;23.05;3.60;;;;;;;34.46;24.92;98494.41;5031622;28;20029;-78
2022/09/16 11:24:18;;;;;;;17.15;4.25;;;;;;;34.58;24.21;98495.25;5034622;28;20025;-78
2022/09/16 11:27:16;;;;;;;19.95;3.90;;;;;;;34.57;24.50;98499.44;5034586;28;20025;-78
2022/09/16 11:30:09;;;;;;;20.95;4.22;;;;;;;34.51;24.23;98484.97;5033610;28;20038;-78
2022/09/16 11:32:37;;;;;;;17.08;3.35;;;;;;;34.78;24.68;98482.59;5033256;28;20112;-78
2022/09/16 11:35:34;;;;;;;27.75;5.43;;;;;;;34.50;23.59;98482.53;5034408;28;20097;-78
2022/09/16 11:38:09;;;;;;;12.13;3.33;;;;;;;34.31;24.38;98485.94;5034321;28;20028;-78
2022/09/16 11:41:04;;;;;;;15.63;3.38;;;;;;;34.07;24.75;98480.59;5034408;28;20021;-78
2022/09/16 11:43:48;;;;;;;13.90;4.18;;;;;;;34.56;23.82;98475.44;5034081;28;20049;-78
2022/09/16 11:46:44;;;;;;;12.75;3.45;;;;;;;34.61;24.29;98482.59;5034407;28;20068;-78
2022/09/16 11:49:51;;;;;;;15.02;4.05;;;;;;;34.58;23.23;98481.50;5034141;28;20041;-78
2022/09/16 11:52:55;;;;;;;15.65;4.07;;;;;;;34.57;23.90;98487.84;5032893;28;20033;-78
2022/09/16 11:55:45;;;;;;;19.85;4.47;;;;;;;34.46;23.32;98491.50;5033868;28;20049;-78
2022/09/16 11:58:31;;;;;;;23.50;4.00;;;;;;;34.42;24.04;98497.56;5034542;28;20100;-77